sensor_id;sensor_type;location;lat;lon;timestamp;pressure;altitude;pressure_sealevel;temperature;humidity
57442;BME280;43284;47.042;15.498;2023-08-06T00:01:49;95939.22;;;14.81;100.00
57442;BME280;43284;47.042;15.498;2023-08-06T00:04:15;95945.47;;;14.80;100.00
57442;BME280;43284;47.042;15.498;2023-08-06T00:06:40;95938.50;;;14.79;100.00
57442;BME280;43284;47.042;15.498;2023-08-06T00:09:06;95942.81;;;14.80;100.00
57442;BME280;43284;47.042;15.498;2023-08-06T00:11:31;95946.28;;;14.81;100.00
57442;BME280;43284;47.042;15.498;2023-08-06T00:13:57;95945.47;;;14.80;100.00
57442;BME280;43284;47.042;15.498;2023-08-06T00:16:22;95949.88;;;14.80;100.00
57442;BME280;43284;47.042;15.498;2023-08-06T00:18:48;95956.09;;;14.79;100.00
57442;BME280;43284;47.042;15.498;2023-08-06T00:21:13;95962.19;;;14.79;100.00
57442;BME280;43284;47.042;15.498;2023-08-06T00:23:40;95959.44;;;14.81;100.00
57442;BME280;43284;47.042;15.498;2023-08-06T00:26:05;95958.63;;;14.80;100.00
57442;BME280;43284;47.042;15.498;2023-08-06T00:28:31;95962.31;;;14.78;100.00
57442;BME280;43284;47.042;15.498;2023-08-06T00:30:57;95960.38;;;14.80;100.00
57442;BME280;43284;47.042;15.498;2023-08-06T00:33:23;95950.13;;;14.77;100.00
57442;BME280;43284;47.042;15.498;2023-08-06T00:35:49;95959.00;;;14.76;100.00
57442;BME280;43284;47.042;15.498;2023-08-06T00:38:15;95952.19;;;14.73;100.00
57442;BME280;43284;47.042;15.498;2023-08-06T00:40:40;95956.50;;;14.74;100.00
57442;BME280;43284;47.042;15.498;2023-08-06T00:43:06;95959.13;;;14.74;100.00
57442;BME280;43284;47.042;15.498;2023-08-06T00:45:34;95956.50;;;14.74;100.00
57442;BME280;43284;47.042;15.498;2023-08-06T00:48:00;95954.41;;;14.78;100.00
57442;BME280;43284;47.042;15.498;2023-08-06T00:50:26;95954.56;;;14.76;100.00
57442;BME280;43284;47.042;15.498;2023-08-06T00:52:52;95952.06;;;14.75;100.00
57442;BME280;43284;47.042;15.498;2023-08-06T00:55:17;95945.97;;;14.74;100.00
57442;BME280;43284;47.042;15.498;2023-08-06T00:57:43;95944.16;;;14.75;100.00
57442;BME280;43284;47.042;15.498;2023-08-06T01:00:09;95937.25;;;14.74;100.00
57442;BME280;43284;47.042;15.498;2023-08-06T01:02:36;95933.75;;;14.73;100.00
57442;BME280;43284;47.042;15.498;2023-08-06T01:05:02;95936.41;;;14.73;100.00
57442;BME280;43284;47.042;15.498;2023-08-06T01:07:40;95933.75;;;14.73;100.00
57442;BME280;43284;47.042;15.498;2023-08-06T01:10:26;95943.34;;;14.74;100.00
57442;BME280;43284;47.042;15.498;2023-08-06T01:15:35;95939.88;;;14.74;100.00
57442;BME280;43284;47.042;15.498;2023-08-06T01:18:04;95926.84;;;14.72;100.00
57442;BME280;43284;47.042;15.498;2023-08-06T01:20:31;95918.13;;;14.72;100.00
57442;BME280;43284;47.042;15.498;2023-08-06T01:22:56;95916.72;;;14.68;100.00
57442;BME280;43284;47.042;15.498;2023-08-06T01:25:29;95911.47;;;14.68;100.00
57442;BME280;43284;47.042;15.498;2023-08-06T01:28:05;95911.31;;;14.69;100.00
57442;BME280;43284;47.042;15.498;2023-08-06T01:30:33;95920.63;;;14.73;100.00
57442;BME280;43284;47.042;15.498;2023-08-06T01:33:04;95917.28;;;14.71;100.00
57442;BME280;43284;47.042;15.498;2023-08-06T01:35:32;95909.53;;;14.70;100.00
57442;BME280;43284;47.042;15.498;2023-08-06T01:37:59;95903.88;;;14.74;100.00
57442;BME280;43284;47.042;15.498;2023-08-06T01:40:25;95903.88;;;14.74;100.00
57442;BME280;43284;47.042;15.498;2023-08-06T01:42:53;95905.69;;;14.74;100.00
57442;BME280;43284;47.042;15.498;2023-08-06T01:45:19;95903.41;;;14.69;100.00
57442;BME280;43284;47.042;15.498;2023-08-06T01:47:44;95907.03;;;14.68;100.00
57442;BME280;43284;47.042;15.498;2023-08-06T01:50:10;95895.69;;;14.68;100.00
57442;BME280;43284;47.042;15.498;2023-08-06T01:52:35;95900.25;;;14.66;100.00
57442;BME280;43284;47.042;15.498;2023-08-06T01:55:01;95902.03;;;14.65;100.00
57442;BME280;43284;47.042;15.498;2023-08-06T01:57:26;95902.16;;;14.63;100.00
57442;BME280;43284;47.042;15.498;2023-08-06T01:59:52;95894.41;;;14.62;100.00
57442;BME280;43284;47.042;15.498;2023-08-06T02:02:17;95887.50;;;14.61;100.00
57442;BME280;43284;47.042;15.498;2023-08-06T02:04:43;95890.25;;;14.59;100.00
57442;BME280;43284;47.042;15.498;2023-08-06T02:07:08;95886.63;;;14.60;100.00
57442;BME280;43284;47.042;15.498;2023-08-06T02:09:34;95884.00;;;14.60;100.00
57442;BME280;43284;47.042;15.498;2023-08-06T02:12:00;95885.81;;;14.60;100.00
57442;BME280;43284;47.042;15.498;2023-08-06T02:14:26;95881.53;;;14.59;100.00
57442;BME280;43284;47.042;15.498;2023-08-06T02:16:51;95881.53;;;14.59;100.00
57442;BME280;43284;47.042;15.498;2023-08-06T02:19:17;95876.25;;;14.59;100.00
57442;BME280;43284;47.042;15.498;2023-08-06T02:21:42;95877.22;;;14.58;100.00
57442;BME280;43284;47.042;15.498;2023-08-06T02:24:08;95869.47;;;14.56;100.00
57442;BME280;43284;47.042;15.498;2023-08-06T02:26:33;95869.59;;;14.55;100.00
57442;BME280;43284;47.042;15.498;2023-08-06T02:28:59;95876.03;;;14.51;100.00
57442;BME280;43284;47.042;15.498;2023-08-06T02:31:24;95869.97;;;14.50;100.00
57442;BME280;43284;47.042;15.498;2023-08-06T02:33:50;95879.66;;;14.50;100.00
57442;BME280;43284;47.042;15.498;2023-08-06T02:36:15;95878.09;;;14.47;100.00
57442;BME280;43284;47.042;15.498;2023-08-06T02:38:41;95878.09;;;14.47;100.00
57442;BME280;43284;47.042;15.498;2023-08-06T02:41:06;95879.66;;;14.50;100.00
57442;BME280;43284;47.042;15.498;2023-08-06T02:43:32;95877.97;;;14.49;100.00
57442;BME280;43284;47.042;15.498;2023-08-06T02:45:58;95886.69;;;14.49;100.00
57442;BME280;43284;47.042;15.498;2023-08-06T02:48:24;95873.69;;;14.48;100.00
57442;BME280;43284;47.042;15.498;2023-08-06T02:50:49;95879.19;;;14.45;100.00
57442;BME280;43284;47.042;15.498;2023-08-06T02:53:15;95882.63;;;14.45;100.00
57442;BME280;43284;47.042;15.498;2023-08-06T02:55:50;95877.53;;;14.43;100.00
57442;BME280;43284;47.042;15.498;2023-08-06T02:58:16;95885.53;;;14.42;100.00
57442;BME280;43284;47.042;15.498;2023-08-06T03:00:42;95884.72;;;14.41;100.00
57442;BME280;43284;47.042;15.498;2023-08-06T03:03:08;95882.09;;;14.41;100.00
57442;BME280;43284;47.042;15.498;2023-08-06T03:05:34;95880.41;;;14.40;100.00
57442;BME280;43284;47.042;15.498;2023-08-06T03:08:00;95878.03;;;14.37;100.00
57442;BME280;43284;47.042;15.498;2023-08-06T03:10:26;95882.31;;;14.38;100.00
57442;BME280;43284;47.042;15.498;2023-08-06T03:12:51;95869.47;;;14.35;100.00
57442;BME280;43284;47.042;15.498;2023-08-06T03:15:17;95873.88;;;14.35;100.00
57442;BME280;43284;47.042;15.498;2023-08-06T03:17:42;95882.59;;;14.35;100.00
57442;BME280;43284;47.042;15.498;2023-08-06T03:20:09;95874.97;;;14.32;100.00
57442;BME280;43284;47.042;15.498;2023-08-06T03:22:35;95878.31;;;14.34;100.00
57442;BME280;43284;47.042;15.498;2023-08-06T03:25:00;95879.25;;;14.33;100.00
57442;BME280;43284;47.042;15.498;2023-08-06T03:27:26;95871.38;;;14.33;100.00
57442;BME280;43284;47.042;15.498;2023-08-06T03:29:51;95873.19;;;14.33;100.00
57442;BME280;43284;47.042;15.498;2023-08-06T03:32:17;95874.97;;;14.32;100.00
57442;BME280;43284;47.042;15.498;2023-08-06T03:34:42;95874.00;;;14.33;100.00
57442;BME280;43284;47.042;15.498;2023-08-06T03:37:08;95876.63;;;14.33;100.00
57442;BME280;43284;47.042;15.498;2023-08-06T03:39:34;95872.22;;;14.34;100.00
57442;BME280;43284;47.042;15.498;2023-08-06T03:41:59;95874.00;;;14.33;100.00
57442;BME280;43284;47.042;15.498;2023-08-06T03:44:24;95869.47;;;14.35;100.00
57442;BME280;43284;47.042;15.498;2023-08-06T03:46:52;95878.88;;;14.38;100.00
57442;BME280;43284;47.042;15.498;2023-08-06T03:49:17;95865.72;;;14.38;100.00
57442;BME280;43284;47.042;15.498;2023-08-06T03:51:43;95862.00;;;14.40;100.00
57442;BME280;43284;47.042;15.498;2023-08-06T03:54:08;95863.69;;;14.41;100.00
57442;BME280;43284;47.042;15.498;2023-08-06T03:56:34;95863.56;;;14.43;100.00
57442;BME280;43284;47.042;15.498;2023-08-06T03:58:59;95858.97;;;14.45;100.00
57442;BME280;43284;47.042;15.498;2023-08-06T04:01:25;95857.06;;;14.47;100.00
57442;BME280;43284;47.042;15.498;2023-08-06T04:03:50;95861.47;;;14.47;100.00
57442;BME280;43284;47.042;15.498;2023-08-06T04:06:16;95854.41;;;14.47;100.00
57442;BME280;43284;47.042;15.498;2023-08-06T04:08:41;95858.63;;;14.50;100.00
57442;BME280;43284;47.042;15.498;2023-08-06T04:11:07;95860.25;;;14.51;100.00
57442;BME280;43284;47.042;15.498;2023-08-06T04:13:32;95857.50;;;14.52;100.00
57442;BME280;43284;47.042;15.498;2023-08-06T04:16:04;95853.19;;;14.51;100.00
57442;BME280;43284;47.042;15.498;2023-08-06T04:18:30;95854.88;;;14.52;100.00
57442;BME280;43284;47.042;15.498;2023-08-06T04:20:56;95862.63;;;14.54;100.00
57442;BME280;43284;47.042;15.498;2023-08-06T04:23:23;95853.81;;;14.55;100.00
57442;BME280;43284;47.042;15.498;2023-08-06T04:25:48;95850.91;;;14.58;100.00
57442;BME280;43284;47.042;15.498;2023-08-06T04:28:13;95860.47;;;14.59;100.00
57442;BME280;43284;47.042;15.498;2023-08-06T04:30:39;95851.78;;;14.58;100.00
57442;BME280;43284;47.042;15.498;2023-08-06T04:33:04;95850.66;;;14.61;100.00
57442;BME280;43284;47.042;15.498;2023-08-06T04:35:30;95859.09;;;14.65;100.00
57442;BME280;43284;47.042;15.498;2023-08-06T04:37:55;95859.97;;;14.65;100.00
57442;BME280;43284;47.042;15.498;2023-08-06T04:40:21;95852.91;;;14.66;100.00
57442;BME280;43284;47.042;15.498;2023-08-06T04:42:47;95863.97;;;14.69;100.00
57442;BME280;43284;47.042;15.498;2023-08-06T04:45:12;95863.97;;;14.69;100.00
57442;BME280;43284;47.042;15.498;2023-08-06T04:47:38;95874.50;;;14.69;100.00
57442;BME280;43284;47.042;15.498;2023-08-06T04:50:03;95876.16;;;14.70;100.00
57442;BME280;43284;47.042;15.498;2023-08-06T04:52:29;95878.81;;;14.70;100.00
57442;BME280;43284;47.042;15.498;2023-08-06T04:54:57;95891.84;;;14.72;100.00
57442;BME280;43284;47.042;15.498;2023-08-06T04:57:23;95892.66;;;14.72;100.00
57442;BME280;43284;47.042;15.498;2023-08-06T04:59:48;95897.91;;;14.72;100.00
57442;BME280;43284;47.042;15.498;2023-08-06T05:02:17;95904.84;;;14.73;100.00
57442;BME280;43284;47.042;15.498;2023-08-06T05:04:42;95907.47;;;14.73;100.00
57442;BME280;43284;47.042;15.498;2023-08-06T05:07:08;95909.84;;;14.76;100.00
57442;BME280;43284;47.042;15.498;2023-08-06T05:09:33;95918.69;;;14.75;100.00
57442;BME280;43284;47.042;15.498;2023-08-06T05:12:01;95927.69;;;14.73;100.00
57442;BME280;43284;47.042;15.498;2023-08-06T05:14:27;95923.41;;;14.72;100.00
57442;BME280;43284;47.042;15.498;2023-08-06T05:16:53;95922.53;;;14.71;100.00
57442;BME280;43284;47.042;15.498;2023-08-06T05:19:18;95920.06;;;14.70;100.00
57442;BME280;43284;47.042;15.498;2023-08-06T05:21:44;95932.25;;;14.71;100.00
57442;BME280;43284;47.042;15.498;2023-08-06T05:24:09;95921.00;;;14.69;100.00
57442;BME280;43284;47.042;15.498;2023-08-06T05:26:35;95921.00;;;14.69;100.00
57442;BME280;43284;47.042;15.498;2023-08-06T05:29:00;95927.09;;;14.69;100.00
57442;BME280;43284;47.042;15.498;2023-08-06T05:31:26;95924.34;;;14.71;100.00
57442;BME280;43284;47.042;15.498;2023-08-06T05:33:54;95933.06;;;14.71;100.00
57442;BME280;43284;47.042;15.498;2023-08-06T05:36:19;95933.06;;;14.71;100.00
57442;BME280;43284;47.042;15.498;2023-08-06T05:38:45;95931.13;;;14.73;100.00
57442;BME280;43284;47.042;15.498;2023-08-06T05:41:10;95927.56;;;14.74;100.00
57442;BME280;43284;47.042;15.498;2023-08-06T05:43:36;95925.75;;;14.75;100.00
57442;BME280;43284;47.042;15.498;2023-08-06T05:46:01;95928.25;;;14.76;100.00
57442;BME280;43284;47.042;15.498;2023-08-06T05:48:27;95920.38;;;14.76;100.00
57442;BME280;43284;47.042;15.498;2023-08-06T05:50:53;95917.47;;;14.79;100.00
57442;BME280;43284;47.042;15.498;2023-08-06T05:53:18;95932.16;;;14.82;100.00
57442;BME280;43284;47.042;15.498;2023-08-06T05:55:44;95925.25;;;14.81;100.00
57442;BME280;43284;47.042;15.498;2023-08-06T05:58:10;95926.06;;;14.81;100.00
57442;BME280;43284;47.042;15.498;2023-08-06T06:00:35;95934.66;;;14.83;100.00
57442;BME280;43284;47.042;15.498;2023-08-06T06:03:01;95943.53;;;14.82;100.00
57442;BME280;43284;47.042;15.498;2023-08-06T06:05:28;95942.56;;;14.83;100.00
57442;BME280;43284;47.042;15.498;2023-08-06T06:07:53;95937.88;;;14.87;100.00
57442;BME280;43284;47.042;15.498;2023-08-06T06:10:19;95930.81;;;14.88;100.00
57442;BME280;43284;47.042;15.498;2023-08-06T06:12:44;95947.28;;;14.90;100.00
57442;BME280;43284;47.042;15.498;2023-08-06T06:15:10;95936.78;;;14.90;100.00
57442;BME280;43284;47.042;15.498;2023-08-06T06:17:36;95938.19;;;14.94;100.00
57442;BME280;43284;47.042;15.498;2023-08-06T06:20:01;95936.38;;;14.94;100.00
57442;BME280;43284;47.042;15.498;2023-08-06T06:22:29;95945.38;;;14.92;100.00
57442;BME280;43284;47.042;15.498;2023-08-06T06:24:55;95933.47;;;14.97;100.00
57442;BME280;43284;47.042;15.498;2023-08-06T06:27:20;95931.69;;;14.98;100.00
57442;BME280;43284;47.042;15.498;2023-08-06T06:29:46;95943.03;;;14.98;100.00
57442;BME280;43284;47.042;15.498;2023-08-06T06:32:11;95939.59;;;14.98;100.00
57442;BME280;43284;47.042;15.498;2023-08-06T06:34:36;95941.81;;;15.02;100.00
57442;BME280;43284;47.042;15.498;2023-08-06T06:37:02;95948.72;;;15.03;100.00
57442;BME280;43284;47.042;15.498;2023-08-06T06:39:28;95946.94;;;15.04;100.00
57442;BME280;43284;47.042;15.498;2023-08-06T06:41:53;95938.78;;;15.07;100.00
57442;BME280;43284;47.042;15.498;2023-08-06T06:44:18;95947.09;;;15.12;100.00
57442;BME280;43284;47.042;15.498;2023-08-06T06:46:45;95949.03;;;15.10;100.00
57442;BME280;43284;47.042;15.498;2023-08-06T06:49:11;95944.59;;;15.11;100.00
57442;BME280;43284;47.042;15.498;2023-08-06T06:51:37;95954.19;;;15.12;100.00
57442;BME280;43284;47.042;15.498;2023-08-06T06:54:02;95955.41;;;15.08;100.00
57442;BME280;43284;47.042;15.498;2023-08-06T06:56:28;95953.06;;;15.14;100.00
57442;BME280;43284;47.042;15.498;2023-08-06T06:58:53;95952.69;;;15.19;100.00
57442;BME280;43284;47.042;15.498;2023-08-06T07:01:19;95948.63;;;15.15;100.00
57442;BME280;43284;47.042;15.498;2023-08-06T07:03:44;95954.47;;;15.18;100.00
57442;BME280;43284;47.042;15.498;2023-08-06T07:06:10;95957.69;;;15.22;100.00
57442;BME280;43284;47.042;15.498;2023-08-06T07:08:37;95959.34;;;15.23;100.00
57442;BME280;43284;47.042;15.498;2023-08-06T07:11:06;95949.78;;;15.22;100.00
57442;BME280;43284;47.042;15.498;2023-08-06T07:13:33;95943.56;;;15.23;100.00
57442;BME280;43284;47.042;15.498;2023-08-06T07:15:59;95948.69;;;15.24;100.00
57442;BME280;43284;47.042;15.498;2023-08-06T07:18:24;95941.50;;;15.27;100.00
57442;BME280;43284;47.042;15.498;2023-08-06T07:20:50;95938.59;;;15.30;100.00
57442;BME280;43284;47.042;15.498;2023-08-06T07:23:17;95932.09;;;15.34;100.00
57442;BME280;43284;47.042;15.498;2023-08-06T07:25:42;95937.06;;;15.37;100.00
57442;BME280;43284;47.042;15.498;2023-08-06T07:28:09;95940.00;;;15.34;100.00
57442;BME280;43284;47.042;15.498;2023-08-06T07:30:38;95937.06;;;15.37;100.00
57442;BME280;43284;47.042;15.498;2023-08-06T07:33:04;95944.84;;;15.38;100.00
57442;BME280;43284;47.042;15.498;2023-08-06T07:35:29;95931.81;;;15.37;100.00
57442;BME280;43284;47.042;15.498;2023-08-06T07:37:54;95936.78;;;15.30;100.00
57442;BME280;43284;47.042;15.498;2023-08-06T07:40:20;95928.47;;;15.35;100.00
57442;BME280;43284;47.042;15.498;2023-08-06T07:42:45;95936.00;;;15.39;100.00
57442;BME280;43284;47.042;15.498;2023-08-06T07:45:11;95927.25;;;15.39;100.00
57442;BME280;43284;47.042;15.498;2023-08-06T07:47:36;95926.84;;;15.43;100.00
57442;BME280;43284;47.042;15.498;2023-08-06T07:50:02;95927.81;;;15.42;100.00
57442;BME280;43284;47.042;15.498;2023-08-06T07:52:27;95924.19;;;15.43;100.00
57442;BME280;43284;47.042;15.498;2023-08-06T07:54:53;95931.16;;;15.44;100.00
57442;BME280;43284;47.042;15.498;2023-08-06T07:57:18;95926.59;;;15.47;100.00
57442;BME280;43284;47.042;15.498;2023-08-06T07:59:44;95923.13;;;15.46;100.00
57442;BME280;43284;47.042;15.498;2023-08-06T08:02:09;95917.69;;;15.48;100.00
57442;BME280;43284;47.042;15.498;2023-08-06T08:04:35;95917.28;;;15.52;100.00
57442;BME280;43284;47.042;15.498;2023-08-06T08:07:00;95919.13;;;15.61;100.00
57442;BME280;43284;47.042;15.498;2023-08-06T08:09:26;95925.09;;;15.63;100.00
57442;BME280;43284;47.042;15.498;2023-08-06T08:11:51;95922.88;;;15.69;100.00
57442;BME280;43284;47.042;15.498;2023-08-06T08:14:17;95918.91;;;15.74;100.00
57442;BME280;43284;47.042;15.498;2023-08-06T08:16:43;95922.06;;;15.78;100.00
57442;BME280;43284;47.042;15.498;2023-08-06T08:19:08;95934.84;;;15.82;100.00
57442;BME280;43284;47.042;15.498;2023-08-06T08:21:34;95926.94;;;15.82;100.00
57442;BME280;43284;47.042;15.498;2023-08-06T08:24:00;95933.47;;;15.88;100.00
57442;BME280;43284;47.042;15.498;2023-08-06T08:26:26;95938.88;;;15.86;100.00
57442;BME280;43284;47.042;15.498;2023-08-06T08:28:53;95936.94;;;15.89;100.00
57442;BME280;43284;47.042;15.498;2023-08-06T08:31:19;95932.66;;;15.88;100.00
57442;BME280;43284;47.042;15.498;2023-08-06T08:33:44;95943.19;;;15.88;100.00
57442;BME280;43284;47.042;15.498;2023-08-06T08:36:10;95939.44;;;15.90;100.00
57442;BME280;43284;47.042;15.498;2023-08-06T08:38:35;95940.13;;;15.92;100.00
57442;BME280;43284;47.042;15.498;2023-08-06T08:41:01;95941.66;;;15.95;100.00
57442;BME280;43284;47.042;15.498;2023-08-06T08:43:27;95952.06;;;15.96;100.00
57442;BME280;43284;47.042;15.498;2023-08-06T08:45:54;95945.00;;;15.97;100.00
57442;BME280;43284;47.042;15.498;2023-08-06T08:48:25;95949.44;;;15.96;100.00
57442;BME280;43284;47.042;15.498;2023-08-06T08:50:52;95951.22;;;15.96;100.00
57442;BME280;43284;47.042;15.498;2023-08-06T08:53:18;95952.91;;;15.97;100.00
57442;BME280;43284;47.042;15.498;2023-08-06T08:55:47;95949.16;;;15.99;100.00
57442;BME280;43284;47.042;15.498;2023-08-06T08:58:13;95952.47;;;16.01;100.00
57442;BME280;43284;47.042;15.498;2023-08-06T09:00:41;95948.47;;;16.07;100.00
57442;BME280;43284;47.042;15.498;2023-08-06T09:03:08;95956.91;;;16.11;100.00
57442;BME280;43284;47.042;15.498;2023-08-06T09:05:33;95958.59;;;16.12;100.00
57442;BME280;43284;47.042;15.498;2023-08-06T09:08:03;95953.31;;;16.12;100.00
57442;BME280;43284;47.042;15.498;2023-08-06T09:10:29;95956.09;;;16.10;100.00
57442;BME280;43284;47.042;15.498;2023-08-06T09:12:56;95957.75;;;16.11;100.00
57442;BME280;43284;47.042;15.498;2023-08-06T09:15:25;95956.78;;;16.12;100.00
57442;BME280;43284;47.042;15.498;2023-08-06T09:17:54;95961.25;;;16.12;100.00
57442;BME280;43284;47.042;15.498;2023-08-06T09:20:20;95962.75;;;16.14;100.00
57442;BME280;43284;47.042;15.498;2023-08-06T09:22:46;95963.28;;;16.18;100.00
57442;BME280;43284;47.042;15.498;2023-08-06T09:25:21;95969.44;;;16.18;100.00
57442;BME280;43284;47.042;15.498;2023-08-06T09:27:49;95971.91;;;16.20;100.00
57442;BME280;43284;47.042;15.498;2023-08-06T09:30:29;95975.41;;;16.20;100.00
57442;BME280;43284;47.042;15.498;2023-08-06T09:32:56;95984.13;;;16.21;100.00
57442;BME280;43284;47.042;15.498;2023-08-06T09:35:21;95977.88;;;16.22;100.00
57442;BME280;43284;47.042;15.498;2023-08-06T09:37:47;95990.22;;;16.21;100.00
57442;BME280;43284;47.042;15.498;2023-08-06T09:40:29;95987.47;;;16.23;100.00
57442;BME280;43284;47.042;15.498;2023-08-06T09:42:56;95981.50;;;16.21;100.00
57442;BME280;43284;47.042;15.498;2023-08-06T09:45:22;95977.19;;;16.20;100.00
57442;BME280;43284;47.042;15.498;2023-08-06T09:47:55;95979.97;;;16.18;100.00
57442;BME280;43284;47.042;15.498;2023-08-06T09:50:21;95981.91;;;16.26;100.00
57442;BME280;43284;47.042;15.498;2023-08-06T09:52:47;95982.59;;;16.28;100.00
57442;BME280;43284;47.042;15.498;2023-08-06T09:55:14;95990.91;;;16.33;100.00
57442;BME280;43284;47.042;15.498;2023-08-06T09:57:41;95984.66;;;16.44;100.00
57442;BME280;43284;47.042;15.498;2023-08-06T10:00:10;95992.03;;;16.50;100.00
57442;BME280;43284;47.042;15.498;2023-08-06T10:02:40;95982.31;;;16.51;100.00
57442;BME280;43284;47.042;15.498;2023-08-06T10:05:09;95985.06;;;16.59;100.00
57442;BME280;43284;47.042;15.498;2023-08-06T10:07:35;95987.16;;;16.65;100.00
57442;BME280;43284;47.042;15.498;2023-08-06T10:10:02;95988.81;;;16.66;100.00
57442;BME280;43284;47.042;15.498;2023-08-06T10:12:35;95993.69;;;16.71;100.00
57442;BME280;43284;47.042;15.498;2023-08-06T10:15:04;95994.22;;;16.74;100.00
57442;BME280;43284;47.042;15.498;2023-08-06T10:17:33;95984.50;;;16.84;100.00
57442;BME280;43284;47.042;15.498;2023-08-06T10:19:59;95989.75;;;16.94;100.00
57442;BME280;43284;47.042;15.498;2023-08-06T10:22:25;95995.31;;;17.01;100.00
57442;BME280;43284;47.042;15.498;2023-08-06T10:24:54;96004.44;;;17.16;100.00
57442;BME280;43284;47.042;15.498;2023-08-06T10:27:20;96003.41;;;17.27;100.00
57442;BME280;43284;47.042;15.498;2023-08-06T10:29:47;95994.34;;;17.39;100.00
57442;BME280;43284;47.042;15.498;2023-08-06T10:32:12;95995.97;;;17.50;100.00
57442;BME280;43284;47.042;15.498;2023-08-06T10:34:55;96004.28;;;17.55;100.00
57442;BME280;43284;47.042;15.498;2023-08-06T10:37:21;95994.66;;;17.64;100.00
57442;BME280;43284;47.042;15.498;2023-08-06T10:39:49;95994.06;;;17.70;100.00
57442;BME280;43284;47.042;15.498;2023-08-06T10:42:22;95999.88;;;17.83;100.00
57442;BME280;43284;47.042;15.498;2023-08-06T10:47:39;95997.53;;;17.70;100.00
57442;BME280;43284;47.042;15.498;2023-08-06T10:50:07;96001.16;;;17.97;100.00
57442;BME280;43284;47.042;15.498;2023-08-06T10:52:34;95999.44;;;18.06;100.00
57442;BME280;43284;47.042;15.498;2023-08-06T10:54:59;96008.59;;;18.11;100.00
57442;BME280;43284;47.042;15.498;2023-08-06T10:57:25;96004.00;;;18.14;100.00
57442;BME280;43284;47.042;15.498;2023-08-06T10:59:50;96004.06;;;18.22;100.00
57442;BME280;43284;47.042;15.498;2023-08-06T11:02:16;96005.22;;;18.37;100.00
57442;BME280;43284;47.042;15.498;2023-08-06T11:04:42;96000.53;;;18.31;100.00
57442;BME280;43284;47.042;15.498;2023-08-06T11:07:07;95996.97;;;18.40;100.00
57442;BME280;43284;47.042;15.498;2023-08-06T11:09:33;96007.84;;;18.55;100.00
57442;BME280;43284;47.042;15.498;2023-08-06T11:11:58;96008.28;;;18.68;100.00
57442;BME280;43284;47.042;15.498;2023-08-06T11:14:24;95998.16;;;18.82;100.00
57442;BME280;43284;47.042;15.498;2023-08-06T11:16:50;96002.47;;;18.83;93.73
57442;BME280;43284;47.042;15.498;2023-08-06T11:19:16;96011.25;;;18.83;89.02
57442;BME280;43284;47.042;15.498;2023-08-06T11:21:43;96007.09;;;18.81;82.50
57442;BME280;43284;47.042;15.498;2023-08-06T11:24:12;96009.09;;;18.87;83.65
57442;BME280;43284;47.042;15.498;2023-08-06T11:26:38;96011.88;;;19.03;92.63
57442;BME280;43284;47.042;15.498;2023-08-06T11:29:05;95999.84;;;19.09;91.43
57442;BME280;43284;47.042;15.498;2023-08-06T11:31:31;96012.66;;;19.22;92.45
57442;BME280;43284;47.042;15.498;2023-08-06T11:33:56;96008.44;;;19.37;89.24
57442;BME280;43284;47.042;15.498;2023-08-06T11:36:32;95998.22;;;19.42;87.36
57442;BME280;43284;47.042;15.498;2023-08-06T11:39:00;95993.59;;;19.52;88.36
57442;BME280;43284;47.042;15.498;2023-08-06T11:41:28;95985.78;;;19.43;78.80
57442;BME280;43284;47.042;15.498;2023-08-06T11:43:54;95980.81;;;19.48;84.72
57442;BME280;43284;47.042;15.498;2023-08-06T11:46:19;95980.53;;;19.51;83.01
57442;BME280;43284;47.042;15.498;2023-08-06T11:48:55;95994.06;;;19.48;82.17
57442;BME280;43284;47.042;15.498;2023-08-06T11:51:27;95986.25;;;19.38;82.83
57442;BME280;43284;47.042;15.498;2023-08-06T11:53:57;95984.03;;;19.25;73.78
57442;BME280;43284;47.042;15.498;2023-08-06T11:56:24;95989.78;;;19.47;76.41
57442;BME280;43284;47.042;15.498;2023-08-06T11:58:50;95988.81;;;19.56;79.40
57442;BME280;43284;47.042;15.498;2023-08-06T12:01:16;95993.50;;;19.62;77.37
57442;BME280;43284;47.042;15.498;2023-08-06T12:03:41;95986.34;;;19.63;71.76
57442;BME280;43284;47.042;15.498;2023-08-06T12:06:07;95982.13;;;19.78;71.64
57442;BME280;43284;47.042;15.498;2023-08-06T12:08:33;95978.06;;;19.92;73.28
57442;BME280;43284;47.042;15.498;2023-08-06T12:10:59;95977.44;;;20.14;76.01
57442;BME280;43284;47.042;15.498;2023-08-06T12:13:24;95980.75;;;20.33;75.24
57442;BME280;43284;47.042;15.498;2023-08-06T12:15:50;95978.09;;;20.33;68.99
57442;BME280;43284;47.042;15.498;2023-08-06T12:18:18;95983.25;;;20.34;68.21
57442;BME280;43284;47.042;15.498;2023-08-06T12:20:43;95977.44;;;20.39;71.83
57442;BME280;43284;47.042;15.498;2023-08-06T12:23:09;95976.31;;;20.33;68.35
57442;BME280;43284;47.042;15.498;2023-08-06T12:25:35;95978.28;;;20.31;69.44
57442;BME280;43284;47.042;15.498;2023-08-06T12:28:01;95986.59;;;20.36;69.35
57442;BME280;43284;47.042;15.498;2023-08-06T12:30:26;95984.44;;;20.40;67.94
57442;BME280;43284;47.042;15.498;2023-08-06T12:32:51;95980.44;;;20.52;71.37
57442;BME280;43284;47.042;15.498;2023-08-06T12:35:17;95991.88;;;20.53;68.03
57442;BME280;43284;47.042;15.498;2023-08-06T12:37:43;95993.56;;;20.54;71.62
57442;BME280;43284;47.042;15.498;2023-08-06T12:40:09;95994.22;;;20.31;69.28
57442;BME280;43284;47.042;15.498;2023-08-06T12:42:35;95998.88;;;20.46;72.12